Terminal Aerodrome Forecast
Issued by NWS

Home | Current Version | Previous Version | Text Only | Print | Product List | Glossary On
Versions: 1 2 3 4 5 6 7 8 9 10 11 12 13 14
000
FTUS44 KLIX 221124
TAFMSY
TAF
KMSY 221124Z 2212/2318 13007KT P6SM FEW010 SCT250
     FM221500 15008KT P6SM SCT020 BKN035
     FM221800 15009KT P6SM FEW025 SCT070
     FM230100 13007KT P6SM BKN015 BKN080
     FM230700 13006KT P6SM BKN008 BKN015
     FM230800 12005KT P6SM BKN003 BKN020
     FM231600 13007KT P6SM VCSH BKN010=

USA.gov is the U.S. government's official web portal to all federal, state and local government web resources and services.